createdAt,value
2022-08-17T00:00:14.688Z,14.02
2022-08-17T00:03:22.340Z,11.93
2022-08-17T00:05:56.853Z,12.57
2022-08-17T00:08:33.100Z,11.50
2022-08-17T00:11:01.215Z,11.63
2022-08-17T00:13:37.047Z,12.90
2022-08-17T00:16:14.677Z,12.67
2022-08-17T00:19:00.905Z,12.00
2022-08-17T00:21:49.178Z,10.90
2022-08-17T00:24:21.269Z,10.68
2022-08-17T00:26:48.217Z,12.45
2022-08-17T00:29:19.503Z,13.38
2022-08-17T00:31:48.531Z,10.80
2022-08-17T00:34:15.782Z,11.30
2022-08-17T00:36:42.614Z,12.32
2022-08-17T00:39:09.753Z,12.38
2022-08-17T00:41:36.802Z,12.45
2022-08-17T00:44:09.788Z,11.70
2022-08-17T00:46:43.912Z,15.13
2022-08-17T00:49:12.940Z,11.77
2022-08-17T00:51:48.690Z,11.73
2022-08-17T00:54:31.968Z,13.23
2022-08-17T00:57:11.354Z,10.77
2022-08-17T00:59:47.175Z,17.83
2022-08-17T01:02:41.667Z,11.82
2022-08-17T01:05:19.128Z,11.35
2022-08-17T01:07:48.354Z,12.50
2022-08-17T01:11:00.424Z,13.55
2022-08-17T01:13:04.660Z,14.05
2022-08-17T01:15:37.438Z,14.98
2022-08-17T01:18:11.648Z,13.23
2022-08-17T01:20:49.142Z,15.65
2022-08-17T01:23:20.516Z,12.63
2022-08-17T01:25:55.686Z,13.65
2022-08-17T01:28:52.539Z,11.02
2022-08-17T01:31:15.497Z,11.13
2022-08-17T01:33:42.664Z,11.93
2022-08-17T01:36:10.122Z,11.65
2022-08-17T01:38:39.164Z,12.77
2022-08-17T01:41:12.605Z,12.98
2022-08-17T01:44:00.764Z,12.55
2022-08-17T01:46:34.105Z,11.57
2022-08-17T01:49:06.340Z,11.80
2022-08-17T01:51:33.922Z,10.15
2022-08-17T01:54:06.170Z,10.95
2022-08-17T01:56:35.737Z,9.88
2022-08-17T01:59:03.297Z,13.27
2022-08-17T02:01:33.733Z,12.82
2022-08-17T02:04:01.891Z,12.75
2022-08-17T02:06:45.097Z,10.25
2022-08-17T02:09:23.984Z,12.52
2022-08-17T02:11:56.409Z,12.40
2022-08-17T02:14:24.904Z,11.07
2022-08-17T02:16:53.227Z,13.82
2022-08-17T02:19:20.570Z,15.55
2022-08-17T02:21:52.217Z,12.65
2022-08-17T02:24:59.778Z,11.40
2022-08-17T02:27:22.368Z,13.57
2022-08-17T02:29:49.392Z,11.63
2022-08-17T02:32:28.203Z,12.93
2022-08-17T02:34:58.096Z,11.77
2022-08-17T02:37:26.821Z,11.98
2022-08-17T02:39:56.815Z,11.30
2022-08-17T02:42:38.225Z,13.40
2022-08-17T02:45:15.918Z,11.18
2022-08-17T02:47:44.191Z,11.27
2022-08-17T02:50:14.521Z,13.57
2022-08-17T02:52:44.632Z,12.55
2022-08-17T02:55:28.481Z,16.40
2022-08-17T02:57:56.222Z,11.80
2022-08-17T03:00:28.925Z,11.57
2022-08-17T03:02:57.606Z,14.10
2022-08-17T03:05:28.150Z,13.13
2022-08-17T03:07:55.466Z,12.57
2022-08-17T03:10:24.498Z,15.52
2022-08-17T03:12:53.177Z,13.90
2022-08-17T03:15:31.429Z,13.32
2022-08-17T03:17:59.753Z,15.18
2022-08-17T03:20:30.070Z,12.15
2022-08-17T03:23:01.845Z,13.20
2022-08-17T03:25:42.782Z,11.93
2022-08-17T03:28:12.206Z,11.93
2022-08-17T03:30:40.388Z,12.40
2022-08-17T03:33:10.074Z,16.42
2022-08-17T03:35:40.638Z,9.85
2022-08-17T03:38:10.742Z,14.80
2022-08-17T03:40:58.625Z,11.15
2022-08-17T03:43:29.848Z,15.18
2022-08-17T03:46:28.917Z,12.15
2022-08-17T03:49:25.694Z,15.63
2022-08-17T03:52:13.900Z,11.38
2022-08-17T03:55:00.779Z,13.10
2022-08-17T03:59:55.916Z,11.93
2022-08-17T04:02:27.469Z,11.95
2022-08-17T04:04:54.644Z,16.40
2022-08-17T04:07:25.483Z,11.95
2022-08-17T04:09:52.527Z,11.98
2022-08-17T04:12:22.941Z,11.90
2022-08-17T04:14:53.307Z,13.10
2022-08-17T04:17:28.796Z,12.68
2022-08-17T04:19:56.053Z,13.18
2022-08-17T04:22:31.024Z,12.20
2022-08-17T04:25:15.750Z,12.95
2022-08-17T04:27:42.664Z,11.02
2022-08-17T04:30:10.904Z,12.52
2022-08-17T04:33:07.317Z,15.38
2022-08-17T04:35:43.074Z,13.30
2022-08-17T04:38:14.686Z,14.05
2022-08-17T04:41:00.486Z,13.10
2022-08-17T04:43:29.327Z,14.18
2022-08-17T04:46:04.856Z,13.38
2022-08-17T04:48:40.692Z,12.50
2022-08-17T04:51:23.319Z,10.73
2022-08-17T04:53:54.876Z,13.05
2022-08-17T04:56:25.739Z,15.55
2022-08-17T04:58:58.181Z,18.17
2022-08-17T05:01:28.134Z,16.70
2022-08-17T05:03:59.103Z,14.52
2022-08-17T05:06:28.738Z,11.40
2022-08-17T05:08:57.832Z,15.88
2022-08-17T05:11:27.343Z,13.43
2022-08-17T05:13:55.964Z,11.55
2022-08-17T05:16:25.530Z,13.20
2022-08-17T05:18:53.010Z,18.02
2022-08-17T05:21:22.863Z,12.68
2022-08-17T05:23:54.950Z,14.25
2022-08-17T05:26:26.110Z,14.05
2022-08-17T05:29:02.949Z,20.02
2022-08-17T05:31:31.361Z,13.30
2022-08-17T05:33:58.606Z,15.35
2022-08-17T05:36:42.199Z,17.05
2022-08-17T05:39:16.584Z,12.35
2022-08-17T05:42:09.499Z,12.43
2022-08-17T05:44:36.538Z,11.05
2022-08-17T05:47:05.863Z,12.48
2022-08-17T05:49:37.236Z,17.50
2022-08-17T05:52:43.437Z,13.30
2022-08-17T05:55:38.334Z,16.75
2022-08-17T05:58:33.493Z,14.07
2022-08-17T06:01:10.498Z,11.40
2022-08-17T06:03:58.277Z,12.43
2022-08-17T06:06:40.370Z,11.52
2022-08-17T06:09:33.858Z,11.48
2022-08-17T06:12:52.312Z,14.23
2022-08-17T06:15:56.749Z,10.85
2022-08-17T06:18:29.892Z,11.35
2022-08-17T06:21:07.526Z,9.93
2022-08-17T06:23:39.636Z,10.48
2022-08-17T06:26:16.572Z,13.60
2022-08-17T06:29:04.630Z,8.02
2022-08-17T06:31:38.518Z,9.75
2022-08-17T06:34:11.678Z,11.10
2022-08-17T06:37:07.431Z,11.95
2022-08-17T06:39:59.098Z,12.20
2022-08-17T06:43:06.769Z,8.73
2022-08-17T06:46:07.053Z,13.07
2022-08-17T06:48:47.431Z,9.77
2022-08-17T06:51:40.619Z,9.07
2022-08-17T06:54:32.775Z,7.63
2022-08-17T06:57:25.177Z,9.60
2022-08-17T07:00:28.731Z,11.60
2022-08-17T07:03:32.202Z,8.48
2022-08-17T07:06:21.558Z,8.65
2022-08-17T07:09:09.277Z,7.90
2022-08-17T07:12:10.513Z,8.13
2022-08-17T07:14:53.299Z,10.15
2022-08-17T07:17:47.699Z,7.60
2022-08-17T07:20:17.658Z,10.55
2022-08-17T07:23:08.754Z,6.82
2022-08-17T07:25:35.751Z,6.35
2022-08-17T07:28:07.772Z,10.82
2022-08-17T07:30:52.111Z,10.30
2022-08-17T07:33:36.954Z,6.43
2022-08-17T07:36:04.550Z,10.30
2022-08-17T07:38:35.726Z,12.13
2022-08-17T07:41:08.459Z,8.70
2022-08-17T07:43:41.674Z,6.95
2022-08-17T07:46:29.934Z,9.50
2022-08-17T07:49:34.314Z,27.63
2022-08-17T07:52:48.436Z,7.65
2022-08-17T07:54:57.693Z,5.80
2022-08-17T07:57:32.765Z,5.40
2022-08-17T08:00:03.168Z,10.50
2022-08-17T08:02:47.772Z,6.65
2022-08-17T08:05:49.330Z,7.38
2022-08-17T08:08:21.549Z,4.85
2022-08-17T08:11:07.869Z,5.30
2022-08-17T08:16:24.679Z,5.70
2022-08-17T08:19:00.328Z,6.55
2022-08-17T08:21:58.970Z,8.07
2022-08-17T08:24:57.914Z,8.52
2022-08-17T08:28:01.499Z,5.75
2022-08-17T08:30:29.930Z,5.30
2022-08-17T08:33:17.104Z,3.63
2022-08-17T08:35:53.711Z,6.95
2022-08-17T08:38:49.605Z,9.45
2022-08-17T08:41:36.891Z,5.85
2022-08-17T08:45:00.851Z,4.40
2022-08-17T08:47:42.206Z,3.60
2022-08-17T08:50:43.546Z,4.13
2022-08-17T08:53:34.878Z,6.18
2022-08-17T08:56:29.418Z,4.47
2022-08-17T08:59:23.506Z,3.67
2022-08-17T09:02:10.216Z,3.78
2022-08-17T09:05:14.272Z,3.42
2022-08-17T09:08:25.687Z,6.15
2022-08-17T09:11:06.415Z,3.92
2022-08-17T09:14:00.696Z,3.88
2022-08-17T09:16:36.177Z,4.13
2022-08-17T09:19:34.415Z,4.43
2022-08-17T09:22:21.841Z,5.05
2022-08-17T09:25:03.232Z,5.57
2022-08-17T09:27:51.429Z,3.08
2022-08-17T09:30:20.273Z,4.53
2022-08-17T09:32:56.054Z,2.92
2022-08-17T09:35:36.940Z,3.38
2022-08-17T09:38:33.422Z,2.58
2022-08-17T09:41:19.561Z,2.78
2022-08-17T09:44:31.174Z,3.42
2022-08-17T09:47:12.762Z,3.03
2022-08-17T09:49:50.588Z,2.80
2022-08-17T09:52:28.618Z,2.70
2022-08-17T09:54:58.329Z,4.28
2022-08-17T09:58:00.976Z,3.60
2022-08-17T10:00:36.273Z,3.38
2022-08-17T10:03:45.993Z,3.85
2022-08-17T10:06:24.806Z,4.78
2022-08-17T10:09:16.620Z,2.95
2022-08-17T10:12:46.495Z,5.40
2022-08-17T10:18:21.796Z,2.85
2022-08-17T10:21:31.352Z,2.92
2022-08-17T10:25:02.059Z,2.88
2022-08-17T10:27:52.973Z,3.50
2022-08-17T10:30:28.370Z,4.57
2022-08-17T10:33:04.287Z,4.10
2022-08-17T10:35:53.786Z,2.92
2022-08-17T10:38:47.353Z,3.70
2022-08-17T10:41:41.430Z,3.00
2022-08-17T10:44:36.984Z,4.63
2022-08-17T10:47:16.445Z,3.05
2022-08-17T10:49:54.013Z,2.70
2022-08-17T10:52:22.024Z,4.38
2022-08-17T10:54:51.929Z,3.15
2022-08-17T10:57:34.115Z,3.05
2022-08-17T11:00:41.594Z,4.03
2022-08-17T11:03:23.468Z,4.00
2022-08-17T11:06:28.169Z,3.30
2022-08-17T11:09:20.126Z,6.07
2022-08-17T11:12:20.725Z,3.40
2022-08-17T11:15:02.905Z,2.70
2022-08-17T11:17:53.523Z,2.75
2022-08-17T11:20:49.882Z,7.30
2022-08-17T11:24:03.166Z,4.13
2022-08-17T11:26:35.572Z,2.72
2022-08-17T11:29:15.697Z,5.18
2022-08-17T11:32:00.803Z,2.83
2022-08-17T11:34:30.903Z,3.85
2022-08-17T11:37:25.807Z,4.07
2022-08-17T11:40:33.033Z,2.53
2022-08-17T11:44:02.803Z,3.30
2022-08-17T11:47:18.424Z,3.08
2022-08-17T11:50:29.112Z,5.68
2022-08-17T11:52:56.177Z,2.65
2022-08-17T11:55:35.670Z,6.43
2022-08-17T11:58:29.303Z,5.95
2022-08-17T12:00:59.752Z,4.22
2022-08-17T12:03:55.605Z,2.60
2022-08-17T12:06:58.570Z,3.10
2022-08-17T12:09:30.961Z,3.47
2022-08-17T12:12:21.400Z,2.47
2022-08-17T12:15:11.522Z,2.78
2022-08-17T12:17:42.620Z,2.63
2022-08-17T12:20:28.100Z,5.30
2022-08-17T12:26:01.337Z,2.50
2022-08-17T12:28:36.089Z,4.40
2022-08-17T12:33:37.466Z,5.63
2022-08-17T12:36:08.788Z,6.20
2022-08-17T12:38:37.990Z,3.05
2022-08-17T12:41:31.726Z,2.88
2022-08-17T12:44:03.225Z,3.70
2022-08-17T12:47:04.821Z,2.90
2022-08-17T12:49:39.294Z,5.47
2022-08-17T12:52:25.463Z,3.78
2022-08-17T12:55:02.925Z,3.15
2022-08-17T12:57:35.734Z,2.40
2022-08-17T13:00:29.908Z,2.85
2022-08-17T13:03:07.978Z,4.07
2022-08-17T13:05:55.623Z,3.97
2022-08-17T13:08:36.451Z,3.38
2022-08-17T13:11:24.053Z,3.53
2022-08-17T13:13:56.435Z,5.20
2022-08-17T13:16:30.871Z,2.70
2022-08-17T13:19:20.343Z,4.55
2022-08-17T13:22:12.678Z,2.88
2022-08-17T13:24:53.274Z,3.97
2022-08-17T13:27:23.398Z,2.55
2022-08-17T13:29:59.515Z,5.90
2022-08-17T13:32:46.338Z,3.75
2022-08-17T13:35:44.208Z,2.92
2022-08-17T13:38:49.567Z,3.78
2022-08-17T13:41:35.306Z,2.92
2022-08-17T13:44:04.161Z,3.92
2022-08-17T13:46:33.250Z,5.50
2022-08-17T13:49:03.518Z,2.80
2022-08-17T13:51:50.276Z,3.58
2022-08-17T13:54:42.671Z,2.53
2022-08-17T13:57:25.431Z,3.42
2022-08-17T14:00:07.260Z,3.95
2022-08-17T14:02:35.128Z,2.40
2022-08-17T14:05:02.028Z,3.08
2022-08-17T14:07:39.890Z,5.65
2022-08-17T14:10:15.355Z,3.60
2022-08-17T14:12:44.654Z,4.53
2022-08-17T14:15:15.794Z,3.53
2022-08-17T14:17:42.806Z,8.40
2022-08-17T14:20:12.310Z,8.75
2022-08-17T14:22:45.113Z,4.05
2022-08-17T14:25:16.072Z,6.75
2022-08-17T14:27:52.442Z,4.38
2022-08-17T14:30:26.738Z,3.20
2022-08-17T14:35:27.584Z,4.30
2022-08-17T14:37:55.010Z,3.45
2022-08-17T14:40:29.867Z,3.33
2022-08-17T14:42:57.688Z,2.58
2022-08-17T14:45:29.871Z,2.83
2022-08-17T14:48:03.972Z,4.72
2022-08-17T14:50:31.712Z,4.82
2022-08-17T14:52:59.245Z,2.53
2022-08-17T14:55:29.768Z,5.20
2022-08-17T14:57:56.873Z,3.83
2022-08-17T15:00:24.023Z,5.20
2022-08-17T15:02:58.307Z,4.60
2022-08-17T15:05:32.419Z,2.60
2022-08-17T15:08:04.712Z,6.10
2022-08-17T15:10:32.810Z,5.10
2022-08-17T15:13:00.546Z,4.28
2022-08-17T15:15:28.711Z,3.25
2022-08-17T15:17:56.144Z,3.08
2022-08-17T15:20:28.221Z,4.07
2022-08-17T15:22:57.316Z,3.50
2022-08-17T15:25:27.644Z,3.03
2022-08-17T15:27:55.887Z,3.88
2022-08-17T15:30:24.490Z,5.82
2022-08-17T15:32:55.207Z,2.90
2022-08-17T15:35:29.734Z,6.57
2022-08-17T15:38:10.706Z,3.95
2022-08-17T15:40:44.241Z,3.05
2022-08-17T15:43:28.334Z,5.53
2022-08-17T15:46:10.359Z,3.63
2022-08-17T15:48:41.912Z,3.60
2022-08-17T15:51:31.797Z,6.72
2022-08-17T15:54:19.298Z,11.85
2022-08-17T15:56:49.607Z,4.68
2022-08-17T15:59:16.696Z,3.50
2022-08-17T16:03:01.563Z,5.43
2022-08-17T16:04:31.622Z,3.47
2022-08-17T16:07:00.432Z,6.47
2022-08-17T16:09:27.667Z,3.33
2022-08-17T16:11:56.068Z,5.47
2022-08-17T16:14:32.342Z,3.35
2022-08-17T16:17:03.517Z,4.15
2022-08-17T16:19:30.776Z,4.45
2022-08-17T16:21:57.763Z,5.78
2022-08-17T16:24:25.251Z,13.55
2022-08-17T16:26:52.218Z,31.25
2022-08-17T16:29:19.401Z,12.38
2022-08-17T16:31:46.341Z,5.40
2022-08-17T16:34:18.000Z,4.90
2022-08-17T16:36:55.636Z,12.55
2022-08-17T16:39:29.454Z,6.70
2022-08-17T16:41:57.409Z,35.40
2022-08-17T16:44:29.072Z,4.65
2022-08-17T16:46:57.330Z,5.47
2022-08-17T16:49:35.952Z,4.68
2022-08-17T16:52:12.730Z,7.18
2022-08-17T16:54:44.425Z,5.97
2022-08-17T16:57:13.866Z,4.65
2022-08-17T16:59:45.028Z,4.30
2022-08-17T17:02:25.119Z,3.38
2022-08-17T17:05:19.431Z,4.38
2022-08-17T17:08:07.937Z,4.22
2022-08-17T17:10:43.783Z,5.75
2022-08-17T17:16:26.687Z,7.07
2022-08-17T17:19:16.585Z,4.47
2022-08-17T17:22:23.391Z,4.97
2022-08-17T17:25:27.473Z,6.07
2022-08-17T17:28:14.504Z,6.40
2022-08-17T17:31:18.917Z,13.48
2022-08-17T17:34:04.937Z,10.48
2022-08-17T17:36:54.401Z,7.63
2022-08-17T17:39:41.320Z,5.28
2022-08-17T17:42:16.688Z,6.57
2022-08-17T17:45:03.997Z,6.47
2022-08-17T17:47:32.281Z,10.50
2022-08-17T17:50:01.934Z,6.68
2022-08-17T17:53:02.113Z,8.32
2022-08-17T17:56:00.192Z,7.82
2022-08-17T17:58:54.641Z,22.00
2022-08-17T18:01:34.204Z,25.60
2022-08-17T18:04:27.774Z,24.83
2022-08-17T18:07:12.195Z,14.15
2022-08-17T18:09:53.628Z,7.88
2022-08-17T18:12:43.966Z,6.50
2022-08-17T18:15:25.479Z,10.15
2022-08-17T18:18:14.519Z,9.27
2022-08-17T18:20:53.134Z,8.30
2022-08-17T18:23:27.679Z,7.43
2022-08-17T18:25:58.640Z,5.97
2022-08-17T18:28:39.700Z,6.20
2022-08-17T18:31:12.571Z,11.18
2022-08-17T18:33:44.518Z,5.88
2022-08-17T18:36:12.613Z,6.03
2022-08-17T18:38:42.806Z,9.55
2022-08-17T18:41:30.526Z,11.05
2022-08-17T18:44:32.703Z,11.32
2022-08-17T18:47:28.848Z,18.55
2022-08-17T18:50:00.606Z,15.40
2022-08-17T18:52:33.645Z,11.23
2022-08-17T18:55:16.257Z,9.85
2022-08-17T18:57:47.798Z,6.22
2022-08-17T19:00:35.920Z,6.50
2022-08-17T19:03:22.633Z,14.27
2022-08-17T19:05:57.398Z,5.25
2022-08-17T19:08:30.436Z,8.43
2022-08-17T19:11:22.461Z,20.23
2022-08-17T19:14:16.600Z,10.68
2022-08-17T19:17:00.794Z,7.88
2022-08-17T19:19:45.786Z,14.23
2022-08-17T19:22:31.028Z,9.55
2022-08-17T19:25:12.222Z,7.82
2022-08-17T19:28:25.682Z,7.63
2022-08-17T19:31:04.993Z,10.25
2022-08-17T19:33:32.578Z,7.47
2022-08-17T19:36:08.677Z,7.75
2022-08-17T19:39:13.881Z,5.57
2022-08-17T19:41:48.480Z,8.35
2022-08-17T19:44:49.086Z,6.03
2022-08-17T19:47:53.638Z,5.50
2022-08-17T19:50:41.764Z,6.97
2022-08-17T19:54:03.822Z,5.95
2022-08-17T19:56:40.990Z,5.45
2022-08-17T19:59:50.019Z,5.95
2022-08-17T20:02:57.514Z,5.07
2022-08-17T20:05:30.906Z,7.30
2022-08-17T20:08:17.733Z,5.53
2022-08-17T20:11:07.285Z,12.63
2022-08-17T20:13:48.947Z,8.48
2022-08-17T20:16:18.782Z,7.70
2022-08-17T20:19:09.845Z,6.13
2022-08-17T20:21:39.536Z,7.70
2022-08-17T20:24:28.243Z,5.30
2022-08-17T20:27:14.229Z,9.00
2022-08-17T20:30:13.198Z,9.15
2022-08-17T20:32:56.664Z,11.75
2022-08-17T20:35:39.012Z,12.35
2022-08-17T20:38:14.159Z,8.15
2022-08-17T20:41:04.057Z,6.47
2022-08-17T20:43:34.378Z,17.98
2022-08-17T20:46:38.266Z,12.13
2022-08-17T20:49:15.780Z,8.27
2022-08-17T20:52:01.797Z,5.68
2022-08-17T20:54:52.644Z,9.25
2022-08-17T20:57:32.199Z,6.38
2022-08-17T21:00:15.002Z,11.32
2022-08-17T21:02:50.654Z,10.55
2022-08-17T21:06:15.371Z,10.90
2022-08-17T21:08:58.962Z,6.75
2022-08-17T21:11:57.173Z,6.80
2022-08-17T21:14:41.303Z,6.50
2022-08-17T21:17:49.890Z,7.53
2022-08-17T21:20:41.944Z,7.63
2022-08-17T21:23:20.608Z,7.22
2022-08-17T21:26:05.938Z,7.53
2022-08-17T21:29:29.650Z,10.45
2022-08-17T21:32:05.429Z,8.13
2022-08-17T21:34:43.314Z,6.68
2022-08-17T21:37:18.973Z,7.88
2022-08-17T21:40:10.247Z,9.20
2022-08-17T21:42:49.113Z,7.57
2022-08-17T21:45:38.847Z,8.60
2022-08-17T21:48:24.342Z,8.40
2022-08-17T21:51:28.702Z,7.55
2022-08-17T21:54:14.746Z,6.75
2022-08-17T21:56:47.566Z,7.00
2022-08-17T21:59:32.165Z,8.07
2022-08-17T22:02:16.997Z,6.10
2022-08-17T22:04:58.617Z,7.20
2022-08-17T22:07:51.072Z,7.40
2022-08-17T22:10:42.090Z,9.43
2022-08-17T22:13:24.476Z,6.75
2022-08-17T22:16:27.754Z,8.30
2022-08-17T22:18:58.979Z,10.93
2022-08-17T22:21:26.790Z,37.38
2022-08-17T22:24:15.256Z,25.80
2022-08-17T22:27:11.088Z,9.68
2022-08-17T22:29:44.768Z,7.70
2022-08-17T22:32:41.635Z,14.40
2022-08-17T22:35:32.421Z,8.52
2022-08-17T22:38:18.551Z,7.55
2022-08-17T22:40:52.336Z,7.35
2022-08-17T22:43:26.660Z,6.72
2022-08-17T22:45:59.333Z,6.95
2022-08-17T22:48:29.373Z,9.05
2022-08-17T22:51:15.356Z,9.02
2022-08-17T22:54:11.423Z,6.60
2022-08-17T22:57:06.559Z,9.70
2022-08-17T22:59:51.223Z,7.65
2022-08-17T23:02:31.971Z,8.43
2022-08-17T23:05:13.997Z,6.95
2022-08-17T23:07:42.431Z,9.18
2022-08-17T23:10:12.189Z,9.60
2022-08-17T23:12:39.793Z,7.65
2022-08-17T23:15:32.882Z,8.13
2022-08-17T23:18:05.071Z,7.32
2022-08-17T23:20:36.433Z,7.53
2022-08-17T23:23:06.805Z,10.93
2022-08-17T23:25:35.408Z,7.20
2022-08-17T23:28:05.757Z,8.48
2022-08-17T23:30:39.378Z,9.15
2022-08-17T23:33:25.547Z,9.48
2022-08-17T23:35:54.081Z,9.30
2022-08-17T23:38:22.070Z,6.90
2022-08-17T23:40:49.401Z,8.98
2022-08-17T23:43:23.551Z,8.27
2022-08-17T23:45:59.531Z,10.10
2022-08-17T23:48:35.690Z,13.02
2022-08-17T23:51:20.278Z,8.93
2022-08-17T23:53:51.789Z,9.48
2022-08-17T23:56:24.808Z,9.63
2022-08-17T23:58:54.988Z,8.98
